sensor_id;sensor_type;location;lat;lon;timestamp;P1;durP1;ratioP1;P2;durP2;ratioP2
80677;SDS011;70042;52.494;5.502;2024-01-30T00:01:54;6.10;;;4.70;;
80677;SDS011;70042;52.494;5.502;2024-01-30T00:04:20;5.05;;;4.00;;
80677;SDS011;70042;52.494;5.502;2024-01-30T00:06:45;5.60;;;4.28;;
80677;SDS011;70042;52.494;5.502;2024-01-30T00:09:11;5.50;;;4.05;;
80677;SDS011;70042;52.494;5.502;2024-01-30T00:11:36;5.22;;;4.68;;
80677;SDS011;70042;52.494;5.502;2024-01-30T00:16:28;5.57;;;4.80;;
80677;SDS011;70042;52.494;5.502;2024-01-30T00:18:54;4.80;;;4.30;;
80677;SDS011;70042;52.494;5.502;2024-01-30T00:21:20;6.22;;;4.72;;
80677;SDS011;70042;52.494;5.502;2024-01-30T00:23:45;4.90;;;4.32;;
80677;SDS011;70042;52.494;5.502;2024-01-30T00:26:11;5.68;;;4.82;;
80677;SDS011;70042;52.494;5.502;2024-01-30T00:28:37;5.95;;;4.10;;
80677;SDS011;70042;52.494;5.502;2024-01-30T00:31:06;5.82;;;4.05;;
80677;SDS011;70042;52.494;5.502;2024-01-30T00:33:31;6.22;;;4.35;;
80677;SDS011;70042;52.494;5.502;2024-01-30T00:35:57;5.00;;;4.32;;
80677;SDS011;70042;52.494;5.502;2024-01-30T00:38:22;5.55;;;4.32;;
80677;SDS011;70042;52.494;5.502;2024-01-30T00:40:48;5.32;;;4.60;;
80677;SDS011;70042;52.494;5.502;2024-01-30T00:43:14;5.82;;;4.40;;
80677;SDS011;70042;52.494;5.502;2024-01-30T00:45:40;6.15;;;4.55;;
80677;SDS011;70042;52.494;5.502;2024-01-30T00:48:06;5.10;;;4.20;;
80677;SDS011;70042;52.494;5.502;2024-01-30T00:50:31;6.05;;;4.85;;
80677;SDS011;70042;52.494;5.502;2024-01-30T00:52:57;5.88;;;4.55;;
80677;SDS011;70042;52.494;5.502;2024-01-30T00:55:22;6.38;;;4.90;;
80677;SDS011;70042;52.494;5.502;2024-01-30T00:57:48;6.13;;;4.32;;
80677;SDS011;70042;52.494;5.502;2024-01-30T01:00:13;5.78;;;4.57;;
80677;SDS011;70042;52.494;5.502;2024-01-30T01:02:42;4.72;;;3.80;;
80677;SDS011;70042;52.494;5.502;2024-01-30T01:05:07;4.82;;;3.78;;
80677;SDS011;70042;52.494;5.502;2024-01-30T01:07:33;5.53;;;4.15;;
80677;SDS011;70042;52.494;5.502;2024-01-30T01:09:58;6.10;;;4.68;;
80677;SDS011;70042;52.494;5.502;2024-01-30T01:12:24;4.72;;;3.80;;
80677;SDS011;70042;52.494;5.502;2024-01-30T01:14:49;4.60;;;3.70;;
80677;SDS011;70042;52.494;5.502;2024-01-30T01:17:15;4.85;;;3.78;;
80677;SDS011;70042;52.494;5.502;2024-01-30T01:19:40;5.38;;;4.13;;
80677;SDS011;70042;52.494;5.502;2024-01-30T01:22:06;4.68;;;4.15;;
80677;SDS011;70042;52.494;5.502;2024-01-30T01:24:31;6.00;;;4.10;;
80677;SDS011;70042;52.494;5.502;2024-01-30T01:26:58;4.60;;;4.00;;
80677;SDS011;70042;52.494;5.502;2024-01-30T01:29:24;5.35;;;4.00;;
80677;SDS011;70042;52.494;5.502;2024-01-30T01:31:54;5.72;;;4.30;;
80677;SDS011;70042;52.494;5.502;2024-01-30T01:34:21;5.03;;;4.13;;
80677;SDS011;70042;52.494;5.502;2024-01-30T01:36:46;6.30;;;4.28;;
80677;SDS011;70042;52.494;5.502;2024-01-30T01:39:12;5.13;;;3.90;;
80677;SDS011;70042;52.494;5.502;2024-01-30T01:41:37;5.22;;;4.15;;
80677;SDS011;70042;52.494;5.502;2024-01-30T01:44:03;5.55;;;3.70;;
80677;SDS011;70042;52.494;5.502;2024-01-30T01:46:30;4.93;;;4.43;;
80677;SDS011;70042;52.494;5.502;2024-01-30T01:48:57;5.47;;;3.83;;
80677;SDS011;70042;52.494;5.502;2024-01-30T01:51:24;4.57;;;4.10;;
80677;SDS011;70042;52.494;5.502;2024-01-30T01:53:52;4.35;;;3.95;;
80677;SDS011;70042;52.494;5.502;2024-01-30T01:56:19;5.03;;;4.00;;
80677;SDS011;70042;52.494;5.502;2024-01-30T01:58:44;5.28;;;3.90;;
80677;SDS011;70042;52.494;5.502;2024-01-30T02:01:12;4.55;;;3.83;;
80677;SDS011;70042;52.494;5.502;2024-01-30T02:03:38;6.68;;;4.47;;
80677;SDS011;70042;52.494;5.502;2024-01-30T02:06:06;4.90;;;4.40;;
80677;SDS011;70042;52.494;5.502;2024-01-30T02:08:31;5.75;;;3.95;;
80677;SDS011;70042;52.494;5.502;2024-01-30T02:10:57;5.07;;;3.88;;
80677;SDS011;70042;52.494;5.502;2024-01-30T02:13:23;5.63;;;4.00;;
80677;SDS011;70042;52.494;5.502;2024-01-30T02:15:49;6.35;;;4.55;;
80677;SDS011;70042;52.494;5.502;2024-01-30T02:18:19;5.07;;;4.18;;
80677;SDS011;70042;52.494;5.502;2024-01-30T02:20:45;5.47;;;4.15;;
80677;SDS011;70042;52.494;5.502;2024-01-30T02:23:11;3.95;;;3.58;;
80677;SDS011;70042;52.494;5.502;2024-01-30T02:25:40;4.55;;;3.75;;
80677;SDS011;70042;52.494;5.502;2024-01-30T02:28:12;4.97;;;3.80;;
80677;SDS011;70042;52.494;5.502;2024-01-30T02:33:10;4.05;;;3.47;;
80677;SDS011;70042;52.494;5.502;2024-01-30T02:35:35;5.57;;;4.00;;
80677;SDS011;70042;52.494;5.502;2024-01-30T02:38:01;4.03;;;3.60;;
80677;SDS011;70042;52.494;5.502;2024-01-30T02:40:27;4.15;;;3.75;;
80677;SDS011;70042;52.494;5.502;2024-01-30T02:42:52;5.15;;;4.18;;
80677;SDS011;70042;52.494;5.502;2024-01-30T02:45:18;5.85;;;4.35;;
80677;SDS011;70042;52.494;5.502;2024-01-30T02:47:43;3.88;;;3.47;;
80677;SDS011;70042;52.494;5.502;2024-01-30T02:50:09;4.22;;;3.58;;
80677;SDS011;70042;52.494;5.502;2024-01-30T02:52:34;5.47;;;4.38;;
80677;SDS011;70042;52.494;5.502;2024-01-30T02:55:00;4.10;;;3.70;;
80677;SDS011;70042;52.494;5.502;2024-01-30T02:57:26;5.07;;;4.13;;
80677;SDS011;70042;52.494;5.502;2024-01-30T02:59:51;5.68;;;3.80;;
80677;SDS011;70042;52.494;5.502;2024-01-30T03:02:16;4.90;;;3.97;;
80677;SDS011;70042;52.494;5.502;2024-01-30T03:04:42;3.85;;;3.30;;
80677;SDS011;70042;52.494;5.502;2024-01-30T03:07:07;5.63;;;4.15;;
80677;SDS011;70042;52.494;5.502;2024-01-30T03:09:33;6.63;;;4.38;;
80677;SDS011;70042;52.494;5.502;2024-01-30T03:11:59;4.20;;;3.80;;
80677;SDS011;70042;52.494;5.502;2024-01-30T03:14:24;4.53;;;3.85;;
80677;SDS011;70042;52.494;5.502;2024-01-30T03:16:50;6.10;;;4.22;;
80677;SDS011;70042;52.494;5.502;2024-01-30T03:19:15;4.45;;;3.90;;
80677;SDS011;70042;52.494;5.502;2024-01-30T03:21:40;4.95;;;4.15;;
80677;SDS011;70042;52.494;5.502;2024-01-30T03:24:06;4.80;;;3.85;;
80677;SDS011;70042;52.494;5.502;2024-01-30T03:26:31;5.13;;;3.63;;
80677;SDS011;70042;52.494;5.502;2024-01-30T03:28:57;4.10;;;3.65;;
80677;SDS011;70042;52.494;5.502;2024-01-30T03:31:22;5.05;;;4.00;;
80677;SDS011;70042;52.494;5.502;2024-01-30T03:33:48;4.72;;;3.90;;
80677;SDS011;70042;52.494;5.502;2024-01-30T03:36:14;4.45;;;3.28;;
80677;SDS011;70042;52.494;5.502;2024-01-30T03:38:40;4.28;;;3.88;;
80677;SDS011;70042;52.494;5.502;2024-01-30T03:41:07;5.00;;;4.03;;
80677;SDS011;70042;52.494;5.502;2024-01-30T03:43:33;5.13;;;3.58;;
80677;SDS011;70042;52.494;5.502;2024-01-30T03:45:59;6.18;;;4.00;;
80677;SDS011;70042;52.494;5.502;2024-01-30T03:48:26;4.53;;;4.07;;
80677;SDS011;70042;52.494;5.502;2024-01-30T03:50:51;5.10;;;3.92;;
80677;SDS011;70042;52.494;5.502;2024-01-30T03:53:16;4.38;;;3.85;;
80677;SDS011;70042;52.494;5.502;2024-01-30T03:55:42;4.72;;;3.83;;
80677;SDS011;70042;52.494;5.502;2024-01-30T03:58:08;3.88;;;3.38;;
80677;SDS011;70042;52.494;5.502;2024-01-30T04:00:33;5.22;;;3.90;;
80677;SDS011;70042;52.494;5.502;2024-01-30T04:02:59;4.63;;;3.75;;
80677;SDS011;70042;52.494;5.502;2024-01-30T04:05:24;5.05;;;4.15;;
80677;SDS011;70042;52.494;5.502;2024-01-30T04:07:49;4.70;;;4.03;;
80677;SDS011;70042;52.494;5.502;2024-01-30T04:10:15;4.85;;;3.80;;
80677;SDS011;70042;52.494;5.502;2024-01-30T04:12:41;3.90;;;3.35;;
80677;SDS011;70042;52.494;5.502;2024-01-30T04:15:07;4.10;;;3.28;;
80677;SDS011;70042;52.494;5.502;2024-01-30T04:17:33;4.80;;;3.53;;
80677;SDS011;70042;52.494;5.502;2024-01-30T04:19:58;5.40;;;4.07;;
80677;SDS011;70042;52.494;5.502;2024-01-30T04:22:24;4.00;;;3.25;;
80677;SDS011;70042;52.494;5.502;2024-01-30T04:24:49;5.18;;;3.67;;
80677;SDS011;70042;52.494;5.502;2024-01-30T04:27:15;4.47;;;3.75;;
80677;SDS011;70042;52.494;5.502;2024-01-30T04:29:40;4.63;;;3.72;;
80677;SDS011;70042;52.494;5.502;2024-01-30T04:32:05;4.05;;;3.58;;
80677;SDS011;70042;52.494;5.502;2024-01-30T04:34:31;4.90;;;3.47;;
80677;SDS011;70042;52.494;5.502;2024-01-30T04:36:56;4.10;;;3.50;;
80677;SDS011;70042;52.494;5.502;2024-01-30T04:39:22;3.80;;;3.35;;
80677;SDS011;70042;52.494;5.502;2024-01-30T04:41:47;4.40;;;3.13;;
80677;SDS011;70042;52.494;5.502;2024-01-30T04:44:13;5.07;;;3.38;;
80677;SDS011;70042;52.494;5.502;2024-01-30T04:46:39;4.10;;;3.40;;
80677;SDS011;70042;52.494;5.502;2024-01-30T04:49:04;4.63;;;3.53;;
80677;SDS011;70042;52.494;5.502;2024-01-30T04:51:30;4.03;;;3.40;;
80677;SDS011;70042;52.494;5.502;2024-01-30T04:53:55;5.13;;;3.30;;
80677;SDS011;70042;52.494;5.502;2024-01-30T04:56:21;6.03;;;3.45;;
80677;SDS011;70042;52.494;5.502;2024-01-30T04:58:46;3.40;;;2.90;;
80677;SDS011;70042;52.494;5.502;2024-01-30T05:01:15;3.42;;;3.13;;
80677;SDS011;70042;52.494;5.502;2024-01-30T05:03:41;4.57;;;3.40;;
80677;SDS011;70042;52.494;5.502;2024-01-30T05:06:07;4.25;;;3.60;;
80677;SDS011;70042;52.494;5.502;2024-01-30T05:08:32;4.20;;;3.40;;
80677;SDS011;70042;52.494;5.502;2024-01-30T05:11:01;4.22;;;3.70;;
80677;SDS011;70042;52.494;5.502;2024-01-30T05:13:28;4.43;;;3.20;;
80677;SDS011;70042;52.494;5.502;2024-01-30T05:15:55;3.95;;;3.55;;
80677;SDS011;70042;52.494;5.502;2024-01-30T05:18:20;4.95;;;3.72;;
80677;SDS011;70042;52.494;5.502;2024-01-30T05:20:46;4.60;;;3.53;;
80677;SDS011;70042;52.494;5.502;2024-01-30T05:23:11;3.95;;;3.10;;
80677;SDS011;70042;52.494;5.502;2024-01-30T05:25:36;4.10;;;3.35;;
80677;SDS011;70042;52.494;5.502;2024-01-30T05:28:02;4.75;;;3.33;;
80677;SDS011;70042;52.494;5.502;2024-01-30T05:30:27;4.10;;;3.45;;
80677;SDS011;70042;52.494;5.502;2024-01-30T05:32:53;4.47;;;3.30;;
80677;SDS011;70042;52.494;5.502;2024-01-30T05:35:19;4.57;;;3.38;;
80677;SDS011;70042;52.494;5.502;2024-01-30T05:37:47;4.70;;;3.40;;
80677;SDS011;70042;52.494;5.502;2024-01-30T05:40:15;4.20;;;3.50;;
80677;SDS011;70042;52.494;5.502;2024-01-30T05:42:41;4.15;;;3.75;;
80677;SDS011;70042;52.494;5.502;2024-01-30T05:45:07;3.80;;;3.40;;
80677;SDS011;70042;52.494;5.502;2024-01-30T05:47:33;4.07;;;3.20;;
80677;SDS011;70042;52.494;5.502;2024-01-30T05:52:24;4.90;;;3.40;;
80677;SDS011;70042;52.494;5.502;2024-01-30T05:54:50;3.22;;;2.65;;
80677;SDS011;70042;52.494;5.502;2024-01-30T05:57:15;4.60;;;3.00;;
80677;SDS011;70042;52.494;5.502;2024-01-30T05:59:41;4.53;;;4.03;;
80677;SDS011;70042;52.494;5.502;2024-01-30T06:02:06;4.15;;;3.25;;
80677;SDS011;70042;52.494;5.502;2024-01-30T06:04:32;4.20;;;3.67;;
80677;SDS011;70042;52.494;5.502;2024-01-30T06:06:57;4.20;;;3.50;;
80677;SDS011;70042;52.494;5.502;2024-01-30T06:09:23;3.72;;;3.20;;
80677;SDS011;70042;52.494;5.502;2024-01-30T06:11:48;3.78;;;3.13;;
80677;SDS011;70042;52.494;5.502;2024-01-30T06:14:14;4.28;;;3.40;;
80677;SDS011;70042;52.494;5.502;2024-01-30T06:16:39;4.43;;;3.10;;
80677;SDS011;70042;52.494;5.502;2024-01-30T06:19:05;3.75;;;3.10;;
80677;SDS011;70042;52.494;5.502;2024-01-30T06:21:31;4.38;;;3.15;;
80677;SDS011;70042;52.494;5.502;2024-01-30T06:23:57;3.33;;;2.90;;
80677;SDS011;70042;52.494;5.502;2024-01-30T06:26:22;3.85;;;3.38;;
80677;SDS011;70042;52.494;5.502;2024-01-30T06:28:48;4.47;;;3.33;;
80677;SDS011;70042;52.494;5.502;2024-01-30T06:31:13;3.70;;;3.33;;
80677;SDS011;70042;52.494;5.502;2024-01-30T06:33:39;3.90;;;3.47;;
80677;SDS011;70042;52.494;5.502;2024-01-30T06:36:04;4.10;;;3.00;;
80677;SDS011;70042;52.494;5.502;2024-01-30T06:38:29;4.13;;;3.40;;
80677;SDS011;70042;52.494;5.502;2024-01-30T06:40:55;4.07;;;2.88;;
80677;SDS011;70042;52.494;5.502;2024-01-30T06:43:21;3.83;;;3.00;;
80677;SDS011;70042;52.494;5.502;2024-01-30T06:45:47;4.00;;;3.25;;
80677;SDS011;70042;52.494;5.502;2024-01-30T06:48:13;5.20;;;3.03;;
80677;SDS011;70042;52.494;5.502;2024-01-30T06:50:38;3.42;;;3.00;;
80677;SDS011;70042;52.494;5.502;2024-01-30T06:53:03;5.10;;;3.42;;
80677;SDS011;70042;52.494;5.502;2024-01-30T06:55:29;4.57;;;3.38;;
80677;SDS011;70042;52.494;5.502;2024-01-30T06:57:54;4.32;;;3.65;;
80677;SDS011;70042;52.494;5.502;2024-01-30T07:00:20;4.18;;;3.35;;
80677;SDS011;70042;52.494;5.502;2024-01-30T07:02:46;4.20;;;3.20;;
80677;SDS011;70042;52.494;5.502;2024-01-30T07:05:11;4.32;;;3.00;;
80677;SDS011;70042;52.494;5.502;2024-01-30T07:07:38;4.07;;;3.20;;
80677;SDS011;70042;52.494;5.502;2024-01-30T07:10:03;4.38;;;3.42;;
80677;SDS011;70042;52.494;5.502;2024-01-30T07:12:30;4.20;;;3.20;;
80677;SDS011;70042;52.494;5.502;2024-01-30T07:14:56;4.07;;;2.95;;
80677;SDS011;70042;52.494;5.502;2024-01-30T07:17:21;4.45;;;3.08;;
80677;SDS011;70042;52.494;5.502;2024-01-30T07:19:47;3.70;;;2.92;;
80677;SDS011;70042;52.494;5.502;2024-01-30T07:22:12;4.22;;;3.28;;
80677;SDS011;70042;52.494;5.502;2024-01-30T07:24:41;4.70;;;3.20;;
80677;SDS011;70042;52.494;5.502;2024-01-30T07:27:10;4.78;;;3.38;;
80677;SDS011;70042;52.494;5.502;2024-01-30T07:29:35;4.38;;;3.15;;
80677;SDS011;70042;52.494;5.502;2024-01-30T07:32:00;4.90;;;3.05;;
80677;SDS011;70042;52.494;5.502;2024-01-30T07:34:26;4.03;;;2.92;;
80677;SDS011;70042;52.494;5.502;2024-01-30T07:36:52;4.68;;;3.03;;
80677;SDS011;70042;52.494;5.502;2024-01-30T07:39:18;4.93;;;3.67;;
80677;SDS011;70042;52.494;5.502;2024-01-30T07:41:43;5.90;;;3.38;;
80677;SDS011;70042;52.494;5.502;2024-01-30T07:44:09;4.80;;;3.58;;
80677;SDS011;70042;52.494;5.502;2024-01-30T07:46:34;3.75;;;3.25;;
80677;SDS011;70042;52.494;5.502;2024-01-30T07:49:00;4.97;;;3.05;;
80677;SDS011;70042;52.494;5.502;2024-01-30T07:51:25;4.25;;;2.83;;
80677;SDS011;70042;52.494;5.502;2024-01-30T07:53:53;4.30;;;3.47;;
80677;SDS011;70042;52.494;5.502;2024-01-30T07:56:18;4.47;;;3.45;;
80677;SDS011;70042;52.494;5.502;2024-01-30T07:58:44;3.78;;;3.00;;
80677;SDS011;70042;52.494;5.502;2024-01-30T08:01:10;3.67;;;3.13;;
80677;SDS011;70042;52.494;5.502;2024-01-30T08:03:35;4.68;;;3.30;;
80677;SDS011;70042;52.494;5.502;2024-01-30T08:06:02;4.30;;;3.90;;
80677;SDS011;70042;52.494;5.502;2024-01-30T08:08:28;3.70;;;3.25;;
80677;SDS011;70042;52.494;5.502;2024-01-30T08:10:53;4.10;;;3.45;;
80677;SDS011;70042;52.494;5.502;2024-01-30T08:13:19;3.47;;;2.90;;
80677;SDS011;70042;52.494;5.502;2024-01-30T08:15:44;4.30;;;3.28;;
80677;SDS011;70042;52.494;5.502;2024-01-30T08:18:09;5.55;;;3.50;;
80677;SDS011;70042;52.494;5.502;2024-01-30T08:20:35;5.82;;;3.60;;
80677;SDS011;70042;52.494;5.502;2024-01-30T08:23:01;3.97;;;3.03;;
80677;SDS011;70042;52.494;5.502;2024-01-30T08:25:26;5.47;;;3.35;;
80677;SDS011;70042;52.494;5.502;2024-01-30T08:27:51;4.35;;;2.97;;
80677;SDS011;70042;52.494;5.502;2024-01-30T08:30:17;4.35;;;3.60;;
80677;SDS011;70042;52.494;5.502;2024-01-30T08:32:42;4.38;;;2.92;;
80677;SDS011;70042;52.494;5.502;2024-01-30T08:35:08;3.78;;;2.83;;
80677;SDS011;70042;52.494;5.502;2024-01-30T08:37:34;3.67;;;3.20;;
80677;SDS011;70042;52.494;5.502;2024-01-30T08:39:59;4.82;;;3.42;;
80677;SDS011;70042;52.494;5.502;2024-01-30T08:42:25;4.00;;;3.03;;
80677;SDS011;70042;52.494;5.502;2024-01-30T08:44:51;5.97;;;3.22;;
80677;SDS011;70042;52.494;5.502;2024-01-30T08:47:18;4.53;;;3.17;;
80677;SDS011;70042;52.494;5.502;2024-01-30T08:49:44;3.75;;;3.15;;
80677;SDS011;70042;52.494;5.502;2024-01-30T08:52:10;4.80;;;3.25;;
80677;SDS011;70042;52.494;5.502;2024-01-30T08:54:36;5.03;;;3.50;;
80677;SDS011;70042;52.494;5.502;2024-01-30T08:57:01;3.88;;;3.30;;
80677;SDS011;70042;52.494;5.502;2024-01-30T08:59:27;3.97;;;3.00;;
80677;SDS011;70042;52.494;5.502;2024-01-30T09:01:52;4.43;;;3.15;;
80677;SDS011;70042;52.494;5.502;2024-01-30T09:04:20;4.65;;;3.05;;
80677;SDS011;70042;52.494;5.502;2024-01-30T09:06:46;3.85;;;3.13;;
80677;SDS011;70042;52.494;5.502;2024-01-30T09:09:12;3.75;;;3.08;;
80677;SDS011;70042;52.494;5.502;2024-01-30T09:11:38;4.70;;;3.65;;
80677;SDS011;70042;52.494;5.502;2024-01-30T09:14:03;3.40;;;3.10;;
80677;SDS011;70042;52.494;5.502;2024-01-30T09:16:29;4.15;;;2.72;;
80677;SDS011;70042;52.494;5.502;2024-01-30T09:18:54;4.50;;;3.10;;
80677;SDS011;70042;52.494;5.502;2024-01-30T09:21:20;4.68;;;3.58;;
80677;SDS011;70042;52.494;5.502;2024-01-30T09:23:45;3.38;;;2.90;;
80677;SDS011;70042;52.494;5.502;2024-01-30T09:26:10;4.35;;;3.00;;
80677;SDS011;70042;52.494;5.502;2024-01-30T09:28:37;3.97;;;3.20;;
80677;SDS011;70042;52.494;5.502;2024-01-30T09:31:03;3.88;;;2.78;;
80677;SDS011;70042;52.494;5.502;2024-01-30T09:33:29;4.40;;;3.10;;
80677;SDS011;70042;52.494;5.502;2024-01-30T09:35:54;5.40;;;3.40;;
80677;SDS011;70042;52.494;5.502;2024-01-30T09:38:21;4.78;;;3.10;;
80677;SDS011;70042;52.494;5.502;2024-01-30T09:40:48;4.45;;;3.40;;
80677;SDS011;70042;52.494;5.502;2024-01-30T09:43:23;3.55;;;2.78;;
80677;SDS011;70042;52.494;5.502;2024-01-30T09:45:52;4.47;;;2.80;;
80677;SDS011;70042;52.494;5.502;2024-01-30T09:48:19;5.00;;;3.45;;
80677;SDS011;70042;52.494;5.502;2024-01-30T09:50:48;4.82;;;3.08;;
80677;SDS011;70042;52.494;5.502;2024-01-30T09:53:15;4.53;;;2.88;;
80677;SDS011;70042;52.494;5.502;2024-01-30T09:55:42;6.15;;;3.00;;
80677;SDS011;70042;52.494;5.502;2024-01-30T09:58:09;4.75;;;3.08;;
80677;SDS011;70042;52.494;5.502;2024-01-30T10:00:34;6.05;;;3.13;;
80677;SDS011;70042;52.494;5.502;2024-01-30T10:02:59;5.05;;;3.30;;
80677;SDS011;70042;52.494;5.502;2024-01-30T10:05:26;5.05;;;2.90;;
80677;SDS011;70042;52.494;5.502;2024-01-30T10:07:53;4.35;;;3.08;;
80677;SDS011;70042;52.494;5.502;2024-01-30T10:10:21;5.38;;;3.45;;
80677;SDS011;70042;52.494;5.502;2024-01-30T10:12:48;5.88;;;3.30;;
80677;SDS011;70042;52.494;5.502;2024-01-30T10:15:14;4.85;;;3.63;;
80677;SDS011;70042;52.494;5.502;2024-01-30T10:17:40;3.92;;;3.13;;
80677;SDS011;70042;52.494;5.502;2024-01-30T10:20:06;5.50;;;3.33;;
80677;SDS011;70042;52.494;5.502;2024-01-30T10:22:32;4.93;;;3.13;;
80677;SDS011;70042;52.494;5.502;2024-01-30T10:25:00;5.07;;;2.90;;
80677;SDS011;70042;52.494;5.502;2024-01-30T10:27:28;5.68;;;3.40;;
80677;SDS011;70042;52.494;5.502;2024-01-30T10:29:54;5.25;;;3.35;;
80677;SDS011;70042;52.494;5.502;2024-01-30T10:32:20;7.38;;;3.47;;
80677;SDS011;70042;52.494;5.502;2024-01-30T10:34:46;5.68;;;3.72;;
80677;SDS011;70042;52.494;5.502;2024-01-30T10:37:12;4.05;;;3.17;;
80677;SDS011;70042;52.494;5.502;2024-01-30T10:39:41;4.55;;;3.67;;
80677;SDS011;70042;52.494;5.502;2024-01-30T10:42:11;5.07;;;3.35;;
80677;SDS011;70042;52.494;5.502;2024-01-30T10:47:37;4.93;;;3.58;;
80677;SDS011;70042;52.494;5.502;2024-01-30T10:50:02;5.35;;;4.22;;
80677;SDS011;70042;52.494;5.502;2024-01-30T10:52:30;4.50;;;3.30;;
80677;SDS011;70042;52.494;5.502;2024-01-30T10:54:57;5.20;;;2.95;;
80677;SDS011;70042;52.494;5.502;2024-01-30T10:57:24;5.93;;;3.08;;
80677;SDS011;70042;52.494;5.502;2024-01-30T10:59:58;4.70;;;3.22;;
80677;SDS011;70042;52.494;5.502;2024-01-30T11:02:25;5.43;;;3.50;;
80677;SDS011;70042;52.494;5.502;2024-01-30T11:04:58;4.68;;;3.70;;
80677;SDS011;70042;52.494;5.502;2024-01-30T11:07:27;4.88;;;3.40;;
80677;SDS011;70042;52.494;5.502;2024-01-30T11:12:23;4.97;;;2.92;;
80677;SDS011;70042;52.494;5.502;2024-01-30T11:14:50;4.82;;;3.20;;
80677;SDS011;70042;52.494;5.502;2024-01-30T11:20:09;6.63;;;3.15;;
80677;SDS011;70042;52.494;5.502;2024-01-30T11:22:35;5.30;;;3.28;;
80677;SDS011;70042;52.494;5.502;2024-01-30T11:25:01;5.57;;;3.17;;
80677;SDS011;70042;52.494;5.502;2024-01-30T11:27:28;5.43;;;4.40;;
80677;SDS011;70042;52.494;5.502;2024-01-30T11:30:00;5.18;;;3.72;;
80677;SDS011;70042;52.494;5.502;2024-01-30T11:32:27;4.13;;;3.28;;
80677;SDS011;70042;52.494;5.502;2024-01-30T11:34:53;5.57;;;3.15;;
80677;SDS011;70042;52.494;5.502;2024-01-30T11:37:19;4.78;;;3.20;;
80677;SDS011;70042;52.494;5.502;2024-01-30T11:39:47;4.22;;;2.85;;
80677;SDS011;70042;52.494;5.502;2024-01-30T11:42:13;5.20;;;2.92;;
80677;SDS011;70042;52.494;5.502;2024-01-30T11:44:39;3.53;;;2.95;;
80677;SDS011;70042;52.494;5.502;2024-01-30T11:47:11;4.90;;;2.78;;
80677;SDS011;70042;52.494;5.502;2024-01-30T11:52:02;5.13;;;2.92;;
80677;SDS011;70042;52.494;5.502;2024-01-30T11:54:29;3.78;;;2.67;;
80677;SDS011;70042;52.494;5.502;2024-01-30T11:56:54;6.25;;;2.70;;
80677;SDS011;70042;52.494;5.502;2024-01-30T11:59:20;4.00;;;2.75;;
80677;SDS011;70042;52.494;5.502;2024-01-30T12:01:45;4.70;;;2.75;;
80677;SDS011;70042;52.494;5.502;2024-01-30T12:04:11;4.13;;;2.63;;
80677;SDS011;70042;52.494;5.502;2024-01-30T12:06:38;2.47;;;2.22;;
80677;SDS011;70042;52.494;5.502;2024-01-30T12:09:05;4.25;;;2.35;;
80677;SDS011;70042;52.494;5.502;2024-01-30T12:11:33;3.83;;;2.55;;
80677;SDS011;70042;52.494;5.502;2024-01-30T12:14:08;4.75;;;3.20;;
80677;SDS011;70042;52.494;5.502;2024-01-30T12:16:33;4.20;;;2.55;;
80677;SDS011;70042;52.494;5.502;2024-01-30T12:18:59;3.53;;;2.53;;
80677;SDS011;70042;52.494;5.502;2024-01-30T12:21:28;2.90;;;2.30;;
80677;SDS011;70042;52.494;5.502;2024-01-30T12:23:56;3.53;;;2.55;;
80677;SDS011;70042;52.494;5.502;2024-01-30T12:26:23;4.40;;;2.45;;
80677;SDS011;70042;52.494;5.502;2024-01-30T12:28:50;3.65;;;2.25;;
80677;SDS011;70042;52.494;5.502;2024-01-30T12:31:16;4.20;;;2.53;;
80677;SDS011;70042;52.494;5.502;2024-01-30T12:33:41;3.42;;;2.50;;
80677;SDS011;70042;52.494;5.502;2024-01-30T12:36:07;4.05;;;2.65;;
80677;SDS011;70042;52.494;5.502;2024-01-30T12:38:32;3.28;;;2.53;;
80677;SDS011;70042;52.494;5.502;2024-01-30T12:40:58;2.97;;;2.13;;
80677;SDS011;70042;52.494;5.502;2024-01-30T12:43:24;4.22;;;2.47;;
80677;SDS011;70042;52.494;5.502;2024-01-30T12:45:52;3.45;;;2.45;;
80677;SDS011;70042;52.494;5.502;2024-01-30T12:48:18;2.90;;;2.15;;
80677;SDS011;70042;52.494;5.502;2024-01-30T12:50:45;4.57;;;2.33;;
80677;SDS011;70042;52.494;5.502;2024-01-30T12:53:11;3.88;;;2.25;;
80677;SDS011;70042;52.494;5.502;2024-01-30T12:55:37;3.45;;;2.10;;
80677;SDS011;70042;52.494;5.502;2024-01-30T12:58:03;3.75;;;2.45;;
80677;SDS011;70042;52.494;5.502;2024-01-30T13:00:29;4.57;;;2.50;;
80677;SDS011;70042;52.494;5.502;2024-01-30T13:02:54;2.38;;;1.80;;
80677;SDS011;70042;52.494;5.502;2024-01-30T13:05:20;2.80;;;2.15;;
80677;SDS011;70042;52.494;5.502;2024-01-30T13:07:46;3.88;;;2.30;;
80677;SDS011;70042;52.494;5.502;2024-01-30T13:10:12;3.45;;;1.95;;
80677;SDS011;70042;52.494;5.502;2024-01-30T13:12:38;3.10;;;2.15;;
80677;SDS011;70042;52.494;5.502;2024-01-30T13:15:04;2.97;;;2.10;;
80677;SDS011;70042;52.494;5.502;2024-01-30T13:17:30;2.42;;;2.13;;
80677;SDS011;70042;52.494;5.502;2024-01-30T13:22:22;3.93;;;2.23;;
80677;SDS011;70042;52.494;5.502;2024-01-30T13:24:47;3.28;;;2.22;;
80677;SDS011;70042;52.494;5.502;2024-01-30T13:27:13;3.58;;;2.08;;
80677;SDS011;70042;52.494;5.502;2024-01-30T13:29:38;4.95;;;2.00;;
80677;SDS011;70042;52.494;5.502;2024-01-30T13:32:04;3.47;;;1.83;;
80677;SDS011;70042;52.494;5.502;2024-01-30T13:34:30;3.25;;;1.80;;
80677;SDS011;70042;52.494;5.502;2024-01-30T13:37:11;3.28;;;2.13;;
80677;SDS011;70042;52.494;5.502;2024-01-30T13:39:48;4.07;;;1.98;;
80677;SDS011;70042;52.494;5.502;2024-01-30T13:42:13;2.20;;;1.90;;
80677;SDS011;70042;52.494;5.502;2024-01-30T13:44:39;3.38;;;1.58;;
80677;SDS011;70042;52.494;5.502;2024-01-30T13:47:05;3.80;;;1.88;;
80677;SDS011;70042;52.494;5.502;2024-01-30T13:49:30;5.22;;;1.92;;
80677;SDS011;70042;52.494;5.502;2024-01-30T13:51:58;2.08;;;1.30;;
80677;SDS011;70042;52.494;5.502;2024-01-30T13:54:24;3.40;;;1.85;;
80677;SDS011;70042;52.494;5.502;2024-01-30T13:56:49;2.47;;;1.67;;
80677;SDS011;70042;52.494;5.502;2024-01-30T13:59:15;4.28;;;1.50;;
80677;SDS011;70042;52.494;5.502;2024-01-30T14:01:40;3.08;;;1.63;;
80677;SDS011;70042;52.494;5.502;2024-01-30T14:04:06;2.55;;;1.40;;
80677;SDS011;70042;52.494;5.502;2024-01-30T14:06:31;3.17;;;1.85;;
80677;SDS011;70042;52.494;5.502;2024-01-30T14:08:57;3.78;;;1.50;;
80677;SDS011;70042;52.494;5.502;2024-01-30T14:11:23;2.78;;;1.50;;
80677;SDS011;70042;52.494;5.502;2024-01-30T14:13:51;4.95;;;1.75;;
80677;SDS011;70042;52.494;5.502;2024-01-30T14:16:25;3.15;;;1.60;;
80677;SDS011;70042;52.494;5.502;2024-01-30T14:18:50;2.47;;;1.35;;
80677;SDS011;70042;52.494;5.502;2024-01-30T14:21:16;2.80;;;1.40;;
80677;SDS011;70042;52.494;5.502;2024-01-30T14:23:41;2.45;;;0.93;;
80677;SDS011;70042;52.494;5.502;2024-01-30T14:26:06;3.45;;;1.63;;
80677;SDS011;70042;52.494;5.502;2024-01-30T14:28:36;4.63;;;1.60;;
80677;SDS011;70042;52.494;5.502;2024-01-30T14:31:05;5.43;;;1.33;;
80677;SDS011;70042;52.494;5.502;2024-01-30T14:33:31;1.90;;;1.27;;
80677;SDS011;70042;52.494;5.502;2024-01-30T14:35:56;1.65;;;1.20;;
80677;SDS011;70042;52.494;5.502;2024-01-30T14:38:22;2.60;;;1.33;;
80677;SDS011;70042;52.494;5.502;2024-01-30T14:40:47;4.18;;;1.50;;
80677;SDS011;70042;52.494;5.502;2024-01-30T14:43:13;2.58;;;1.27;;
80677;SDS011;70042;52.494;5.502;2024-01-30T14:45:39;2.58;;;1.23;;
80677;SDS011;70042;52.494;5.502;2024-01-30T14:48:04;3.85;;;1.27;;
80677;SDS011;70042;52.494;5.502;2024-01-30T14:50:30;2.15;;;1.23;;
80677;SDS011;70042;52.494;5.502;2024-01-30T14:52:59;3.85;;;1.52;;
80677;SDS011;70042;52.494;5.502;2024-01-30T14:55:24;2.85;;;1.30;;
80677;SDS011;70042;52.494;5.502;2024-01-30T14:57:50;6.88;;;1.27;;
80677;SDS011;70042;52.494;5.502;2024-01-30T15:00:15;1.75;;;1.23;;
80677;SDS011;70042;52.494;5.502;2024-01-30T15:02:41;2.35;;;1.27;;